Time;durP1;ratioP1;P1;durP2;ratioP2;P2;SDS_P1;SDS_P2;PMS_P1;PMS_P2;Temp;Humidity;BMP_temperature;BMP_pressure;BME280_temperature;BME280_humidity;BME280_pressure;Samples;Min_cycle;Max_cycle;Signal;HPM_P1;HPM_P2
2022/10/19 00:00:15;;;;;;;39.63;11.33;;;11.60;99.90;;;;;;5113821;28;20163;-74
2022/10/19 00:02:40;;;;;;;33.13;9.63;;;11.60;99.90;;;;;;5113681;28;20627;-74
2022/10/19 00:05:06;;;;;;;29.60;10.13;;;11.60;99.90;;;;;;5113712;28;20174;-74
2022/10/19 00:07:32;;;;;;;26.90;10.10;;;11.60;99.90;;;;;;5113885;28;20634;-74
2022/10/19 00:09:58;;;;;;;17.20;8.60;;;11.70;99.90;;;;;;5113687;28;20180;-74
2022/10/19 00:12:24;;;;;;;42.20;10.37;;;11.80;99.90;;;;;;5113323;28;20186;-75
2022/10/19 00:14:49;;;;;;;24.70;9.20;;;11.70;99.90;;;;;;5113708;28;20177;-75
2022/10/19 00:17:15;;;;;;;21.20;8.13;;;11.60;99.90;;;;;;5113433;28;20210;-74
2022/10/19 00:19:41;;;;;;;22.23;8.67;;;11.50;99.90;;;;;;5113927;28;20174;-75
2022/10/19 00:22:06;;;;;;;18.13;8.63;;;11.50;99.90;;;;;;5113561;28;20630;-75
2022/10/19 00:24:32;;;;;;;51.47;11.97;;;11.60;99.90;;;;;;5113787;28;20216;-77
2022/10/19 00:26:58;;;;;;;24.33;8.57;;;11.60;99.90;;;;;;5113239;28;20163;-75
2022/10/19 00:29:23;;;;;;;57.60;10.93;;;11.70;99.90;;;;;;5113467;28;20186;-76
2022/10/19 00:31:49;;;;;;;43.43;10.13;;;11.70;99.90;;;;;;5113157;28;20226;-76
2022/10/19 00:34:16;;;;;;;17.80;7.30;;;11.70;99.90;;;;;;5095541;28;20195;-76
2022/10/19 00:36:42;;;;;;;54.33;10.33;;;11.70;99.90;;;;;;5113699;28;20192;-76
2022/10/19 00:39:11;;;;;;;19.17;7.47;;;11.70;99.90;;;;;;5113471;28;20167;-75
2022/10/19 00:41:37;;;;;;;62.13;10.30;;;11.70;99.90;;;;;;5112976;28;20175;-76
2022/10/19 00:44:25;;;;;;;16.73;6.70;;;11.70;99.90;;;;;;5113325;28;20179;-76
2022/10/19 00:46:52;;;;;;;75.03;12.37;;;11.60;99.90;;;;;;5113168;28;20238;-76
2022/10/19 00:49:18;;;;;;;34.47;8.77;;;11.60;99.90;;;;;;5095069;28;20526;-76
2022/10/19 00:51:48;;;;;;;16.40;7.17;;;11.50;99.90;;;;;;5113189;28;20163;-76
2022/10/19 00:54:15;;;;;;;25.83;8.10;;;11.40;99.90;;;;;;5112995;28;20172;-76
2022/10/19 00:56:43;;;;;;;59.33;10.10;;;11.40;99.90;;;;;;5113030;28;20195;-76
2022/10/19 00:59:10;;;;;;;13.80;7.20;;;11.40;99.90;;;;;;5113399;28;20171;-74
2022/10/19 01:01:36;;;;;;;31.07;8.73;;;11.40;99.90;;;;;;5113162;28;20164;-76
2022/10/19 01:04:02;;;;;;;13.57;7.00;;;11.30;99.90;;;;;;5113139;28;20171;-73
2022/10/19 01:06:28;;;;;;;14.37;7.33;;;11.30;99.90;;;;;;5113218;28;20163;-74
2022/10/19 01:08:54;;;;;;;35.10;8.87;;;11.20;99.90;;;;;;5113296;28;20694;-74
2022/10/19 01:11:37;;;;;;;10.40;6.73;;;11.20;99.90;;;;;;5116897;28;20650;-74
2022/10/19 01:14:34;;;;;;;14.30;7.37;;;11.20;99.90;;;;;;5117196;28;20171;-74
2022/10/19 01:17:26;;;;;;;20.60;8.00;;;11.10;99.90;;;;;;5116958;28;20654;-74
2022/10/19 01:20:19;;;;;;;26.90;9.87;;;11.10;99.90;;;;;;5116780;28;20238;-75
2022/10/19 01:23:12;;;;;;;25.50;8.67;;;11.20;99.90;;;;;;5116469;28;20242;-74
2022/10/19 01:26:09;;;;;;;35.37;9.67;;;11.20;99.90;;;;;;5116907;28;20167;-74
2022/10/19 01:28:47;;;;;;;30.30;8.67;;;11.20;99.90;;;;;;5116716;28;20183;-75
2022/10/19 01:31:30;;;;;;;15.97;7.13;;;11.20;99.90;;;;;;5116409;28;20272;-74
2022/10/19 01:34:08;;;;;;;26.93;8.53;;;11.20;99.90;;;;;;5116842;28;20168;-74
2022/10/19 01:36:50;;;;;;;17.00;6.77;;;11.10;99.90;;;;;;5116629;28;20175;-75
2022/10/19 01:39:23;;;;;;;15.03;7.37;;;11.10;99.90;;;;;;5116312;28;20198;-74
2022/10/19 01:42:12;;;;;;;16.80;7.37;;;11.10;99.90;;;;;;5116535;28;20179;-74
2022/10/19 01:45:08;;;;;;;18.43;7.50;;;11.00;99.90;;;;;;5116318;28;20643;-76
2022/10/19 01:47:44;;;;;;;18.50;7.13;;;10.90;99.90;;;;;;5116345;28;20183;-74
2022/10/19 01:50:30;;;;;;;12.17;6.83;;;10.90;99.90;;;;;;5116382;28;20562;-76
2022/10/19 01:52:57;;;;;;;14.20;7.17;;;10.90;99.90;;;;;;5115811;28;20167;-73
2022/10/19 01:55:24;;;;;;;14.70;7.27;;;10.90;99.90;;;;;;5116275;28;20662;-75
2022/10/19 01:58:02;;;;;;;16.13;7.00;;;10.80;99.90;;;;;;5116200;28;20213;-74
2022/10/19 02:00:30;;;;;;;33.00;7.97;;;10.80;99.90;;;;;;5116200;28;20167;-74
2022/10/19 02:02:57;;;;;;;15.80;6.77;;;10.70;99.90;;;;;;5116024;28;20163;-74
2022/10/19 02:05:29;;;;;;;10.97;7.13;;;10.70;99.90;;;;;;5116034;28;20163;-75
2022/10/19 02:07:58;;;;;;;14.07;6.87;;;10.70;99.90;;;;;;5115759;28;20280;-75
2022/10/19 02:10:26;;;;;;;16.47;7.47;;;10.60;99.90;;;;;;5115939;28;20185;-75
2022/10/19 02:12:53;;;;;;;15.53;7.40;;;10.60;99.90;;;;;;5115816;28;20175;-74
2022/10/19 02:15:23;;;;;;;11.63;7.20;;;10.60;99.90;;;;;;5115917;28;20155;-75
2022/10/19 02:17:55;;;;;;;16.37;7.67;;;10.60;99.90;;;;;;5115807;28;20205;-75
2022/10/19 02:20:22;;;;;;;15.40;8.07;;;10.50;99.90;;;;;;5115685;28;20170;-74
2022/10/19 02:22:47;;;;;;;13.97;7.37;;;10.50;99.90;;;;;;5115349;28;20172;-74
2022/10/19 02:25:14;;;;;;;17.87;8.23;;;10.50;99.90;;;;;;5115644;28;20224;-74
2022/10/19 02:27:43;;;;;;;16.87;8.13;;;10.50;99.90;;;;;;5115553;28;20197;-76
2022/10/19 02:30:11;;;;;;;13.23;8.10;;;10.40;99.90;;;;;;5115544;28;20172;-75
2022/10/19 02:32:37;;;;;;;15.47;7.90;;;10.40;99.90;;;;;;5115228;28;20223;-74
2022/10/19 02:35:02;;;;;;;20.83;8.23;;;10.40;99.90;;;;;;5115713;28;20276;-76
2022/10/19 02:37:28;;;;;;;18.57;8.20;;;10.40;99.90;;;;;;5114833;28;20567;-76
2022/10/19 02:39:54;;;;;;;17.93;7.87;;;10.30;99.90;;;;;;5115229;28;20210;-76
2022/10/19 02:42:27;;;;;;;21.17;8.83;;;10.30;99.90;;;;;;5115441;28;20221;-74
2022/10/19 02:45:05;;;;;;;15.07;8.33;;;10.30;99.90;;;;;;5115320;28;20214;-76
2022/10/19 02:47:37;;;;;;;16.20;8.53;;;10.30;99.90;;;;;;5115304;28;20258;-76
2022/10/19 02:50:07;;;;;;;19.33;8.73;;;10.30;99.90;;;;;;5114896;28;20191;-76
2022/10/19 02:52:36;;;;;;;17.50;8.70;;;10.30;99.90;;;;;;5115676;28;20566;-76
2022/10/19 02:55:02;;;;;;;14.17;8.67;;;10.30;99.90;;;;;;5115184;28;20171;-76
2022/10/19 02:57:28;;;;;;;18.60;8.27;;;10.30;99.90;;;;;;5114849;28;20670;-76
2022/10/19 02:59:53;;;;;;;21.63;8.57;;;10.30;99.90;;;;;;5114729;28;20303;-74
2022/10/19 03:02:20;;;;;;;24.50;8.43;;;10.30;99.90;;;;;;5114834;28;20324;-76
2022/10/19 03:04:45;;;;;;;16.90;8.27;;;10.30;99.90;;;;;;5114557;28;20318;-73
2022/10/19 03:07:14;;;;;;;17.97;8.37;;;10.30;99.90;;;;;;5114718;28;20596;-76
2022/10/19 03:09:40;;;;;;;12.97;8.73;;;10.30;99.90;;;;;;5115107;28;20159;-76
2022/10/19 03:12:06;;;;;;;17.27;9.20;;;10.30;99.90;;;;;;5114530;28;20682;-75
2022/10/19 03:14:32;;;;;;;16.93;8.00;;;10.30;99.90;;;;;;5114813;28;20250;-75
2022/10/19 03:16:57;;;;;;;16.40;8.60;;;10.20;99.90;;;;;;5114438;28;20199;-75
2022/10/19 03:19:23;;;;;;;16.20;8.50;;;10.30;99.90;;;;;;5095484;28;20249;-75
2022/10/19 03:21:49;;;;;;;14.53;8.80;;;10.30;99.90;;;;;;5114232;28;20174;-76
2022/10/19 03:24:15;;;;;;;14.37;8.77;;;10.30;99.90;;;;;;5114364;28;20258;-75
2022/10/19 03:26:41;;;;;;;18.30;8.50;;;10.20;99.90;;;;;;5114310;28;20163;-76
2022/10/19 03:29:06;;;;;;;20.03;9.33;;;10.20;99.90;;;;;;5114091;28;20270;-76
2022/10/19 03:31:32;;;;;;;13.87;8.30;;;10.20;99.90;;;;;;5113485;28;20709;-76
2022/10/19 03:33:57;;;;;;;16.77;8.60;;;10.20;99.90;;;;;;5113610;28;20163;-76
2022/10/19 03:36:38;;;;;;;18.37;9.03;;;10.20;99.90;;;;;;5114197;28;20179;-76
2022/10/19 03:39:06;;;;;;;22.67;9.37;;;10.20;99.90;;;;;;5114194;28;20241;-76
2022/10/19 03:41:34;;;;;;;17.37;9.40;;;10.10;99.90;;;;;;5113458;28;20174;-75
2022/10/19 03:44:00;;;;;;;17.47;9.60;;;10.10;99.90;;;;;;5113949;28;20167;-76
2022/10/19 03:46:26;;;;;;;20.37;10.23;;;10.10;99.90;;;;;;5114106;28;20673;-76
2022/10/19 03:48:52;;;;;;;23.53;10.30;;;10.00;99.90;;;;;;5113613;28;20179;-76
2022/10/19 03:51:21;;;;;;;22.10;10.50;;;10.00;99.90;;;;;;5113705;28;20179;-75
2022/10/19 03:53:50;;;;;;;20.60;10.60;;;10.00;99.90;;;;;;5113650;28;20182;-76
2022/10/19 03:56:19;;;;;;;21.87;10.23;;;10.00;99.90;;;;;;5113696;28;20194;-76
2022/10/19 03:58:46;;;;;;;22.73;11.10;;;10.00;99.90;;;;;;5113303;28;20256;-75
2022/10/19 04:01:21;;;;;;;17.90;10.33;;;10.00;99.90;;;;;;5113782;28;20168;-75
2022/10/19 04:03:47;;;;;;;26.00;10.87;;;10.00;99.90;;;;;;5112952;28;20687;-76
2022/10/19 04:06:16;;;;;;;23.20;11.27;;;10.00;99.90;;;;;;5112985;28;20242;-76
2022/10/19 04:08:42;;;;;;;22.50;11.60;;;10.00;99.90;;;;;;5113405;28;20164;-76
2022/10/19 04:11:11;;;;;;;22.80;11.13;;;10.00;99.90;;;;;;5113798;28;20167;-76
2022/10/19 04:13:37;;;;;;;22.00;11.70;;;10.00;99.90;;;;;;5113118;28;20254;-76
2022/10/19 04:16:03;;;;;;;21.87;12.57;;;10.00;99.90;;;;;;5113306;28;20202;-76
2022/10/19 04:18:28;;;;;;;25.40;12.87;;;10.00;99.90;;;;;;5113209;28;20677;-76
2022/10/19 04:21:02;;;;;;;23.67;12.57;;;10.00;99.90;;;;;;5113285;28;20177;-75
2022/10/19 04:23:30;;;;;;;28.77;12.23;;;10.00;99.90;;;;;;5113017;28;20633;-76
2022/10/19 04:26:00;;;;;;;20.13;12.23;;;10.00;99.90;;;;;;5113248;28;20167;-75
2022/10/19 04:28:26;;;;;;;27.40;13.33;;;10.00;99.90;;;;;;5113086;28;20186;-75
2022/10/19 04:30:52;;;;;;;27.60;12.70;;;10.00;99.90;;;;;;5113494;28;20167;-76
2022/10/19 04:33:17;;;;;;;24.80;12.67;;;9.90;99.90;;;;;;5112413;28;20237;-76
2022/10/19 04:35:43;;;;;;;26.33;12.67;;;9.90;99.90;;;;;;5113310;28;20628;-76
2022/10/19 04:38:09;;;;;;;24.67;13.10;;;9.90;99.90;;;;;;5112677;28;20673;-76
2022/10/19 04:40:35;;;;;;;31.33;13.27;;;9.90;99.90;;;;;;5114088;28;20174;-78
2022/10/19 04:43:01;;;;;;;21.40;12.90;;;9.90;99.90;;;;;;5113758;28;20163;-76
2022/10/19 04:45:27;;;;;;;25.13;13.07;;;9.90;99.90;;;;;;5116294;28;20163;-76
2022/10/19 04:47:55;;;;;;;22.07;13.00;;;9.90;99.90;;;;;;5116908;28;20178;-76
2022/10/19 04:50:25;;;;;;;20.50;12.80;;;9.80;99.90;;;;;;5116672;28;20251;-76
2022/10/19 04:52:50;;;;;;;22.50;14.03;;;9.90;99.90;;;;;;5116550;28;20179;-74
2022/10/19 04:55:16;;;;;;;21.53;12.60;;;9.90;99.90;;;;;;5117427;28;20167;-75
2022/10/19 04:57:42;;;;;;;28.30;13.73;;;9.90;99.90;;;;;;5117127;28;20203;-77
2022/10/19 05:00:08;;;;;;;26.13;13.47;;;9.80;99.90;;;;;;5117421;28;20175;-74
2022/10/19 05:02:34;;;;;;;26.67;14.37;;;9.80;99.90;;;;;;5116449;28;20167;-74
2022/10/19 05:04:59;;;;;;;25.93;13.83;;;9.80;99.90;;;;;;5116069;28;20516;-76
2022/10/19 05:07:25;;;;;;;25.80;14.03;;;9.70;99.90;;;;;;5117115;28;20254;-76
2022/10/19 05:09:51;;;;;;;28.37;15.27;;;9.70;99.90;;;;;;5116378;28;20332;-76
2022/10/19 05:12:16;;;;;;;23.80;14.83;;;9.70;99.90;;;;;;5116433;28;20178;-76
2022/10/19 05:14:42;;;;;;;30.97;15.70;;;9.70;99.90;;;;;;5116420;28;20168;-77
2022/10/19 05:17:07;;;;;;;30.37;15.33;;;9.70;99.90;;;;;;5115637;28;20600;-76
2022/10/19 05:19:33;;;;;;;29.43;15.23;;;9.70;99.90;;;;;;5115708;28;20181;-76
2022/10/19 05:21:59;;;;;;;22.87;14.37;;;9.70;99.90;;;;;;5115744;28;20163;-76
2022/10/19 05:24:24;;;;;;;33.13;16.50;;;9.70;99.90;;;;;;5117911;28;20297;-76
2022/10/19 05:26:50;;;;;;;30.57;16.40;;;9.70;99.90;;;;;;5115704;28;20167;-77
2022/10/19 05:29:16;;;;;;;33.10;17.03;;;9.60;99.90;;;;;;5115339;28;20770;-77
2022/10/19 05:31:41;;;;;;;30.43;16.27;;;9.60;99.90;;;;;;5115551;28;20239;-75
2022/10/19 05:34:07;;;;;;;31.07;17.27;;;9.60;99.90;;;;;;5115773;28;20179;-75
2022/10/19 05:36:36;;;;;;;28.13;17.10;;;9.60;99.90;;;;;;5116076;28;20250;-75
2022/10/19 05:39:16;;;;;;;29.10;17.70;;;9.60;99.90;;;;;;5115416;28;20215;-77
2022/10/19 05:41:43;;;;;;;35.77;18.60;;;9.60;99.90;;;;;;5115291;28;20159;-77
2022/10/19 05:44:14;;;;;;;32.53;18.40;;;9.60;99.90;;;;;;5114899;28;20235;-77
2022/10/19 05:46:40;;;;;;;32.33;17.03;;;9.60;99.90;;;;;;5115287;28;20189;-77
2022/10/19 05:49:05;;;;;;;32.10;18.07;;;9.50;99.90;;;;;;5115151;28;20310;-76
2022/10/19 05:51:31;;;;;;;31.17;18.20;;;9.50;99.90;;;;;;5115018;28;20473;-76
2022/10/19 05:53:56;;;;;;;29.63;16.73;;;9.50;99.90;;;;;;5115270;28;20242;-75
2022/10/19 05:56:25;;;;;;;31.67;18.03;;;9.60;99.90;;;;;;5096159;28;20225;-75
2022/10/19 05:58:51;;;;;;;29.80;17.57;;;9.60;99.90;;;;;;5114446;28;20290;-75
2022/10/19 06:01:18;;;;;;;36.03;18.63;;;9.60;99.90;;;;;;5115018;28;20171;-75
2022/10/19 06:03:44;;;;;;;31.37;18.10;;;9.60;99.90;;;;;;5114801;28;20255;-77
2022/10/19 06:06:10;;;;;;;38.53;17.77;;;9.60;99.90;;;;;;5114697;28;20210;-76
2022/10/19 06:08:37;;;;;;;42.47;18.17;;;9.60;99.90;;;;;;5114185;28;20171;-75
2022/10/19 06:11:05;;;;;;;34.43;17.13;;;9.60;99.90;;;;;;5114090;28;20170;-76
2022/10/19 06:13:31;;;;;;;31.03;16.93;;;9.60;99.90;;;;;;5113987;28;20267;-75
2022/10/19 06:15:57;;;;;;;28.33;16.63;;;9.50;99.90;;;;;;5115518;27;20295;-75
2022/10/19 06:18:24;;;;;;;30.53;17.93;;;9.50;99.90;;;;;;5104624;27;20256;-77
2022/10/19 06:20:51;;;;;;;35.20;17.77;;;9.50;99.90;;;;;;5133163;27;20194;-77
2022/10/19 06:23:17;;;;;;;27.53;16.43;;;9.60;99.90;;;;;;5134201;27;20273;-78
2022/10/19 06:25:43;;;;;;;30.17;17.97;;;9.60;99.90;;;;;;5134984;27;20654;-75
2022/10/19 06:28:09;;;;;;;29.50;17.13;;;9.50;99.90;;;;;;5132927;27;20190;-77
2022/10/19 06:30:41;;;;;;;36.73;17.90;;;9.50;99.90;;;;;;5134090;27;20171;-77
2022/10/19 06:33:06;;;;;;;24.47;15.63;;;9.60;99.90;;;;;;5133562;27;20371;-77
2022/10/19 06:35:32;;;;;;;29.60;16.80;;;9.60;99.90;;;;;;5134267;27;20673;-75
2022/10/19 06:37:58;;;;;;;29.27;16.40;;;9.60;99.90;;;;;;5134942;27;20209;-77
2022/10/19 06:40:24;;;;;;;21.77;15.63;;;9.70;99.90;;;;;;5134183;27;20194;-77
2022/10/19 06:42:50;;;;;;;31.13;16.17;;;9.70;99.90;;;;;;5132830;27;20668;-77
2022/10/19 06:45:15;;;;;;;27.23;15.37;;;9.70;99.90;;;;;;5133718;27;20170;-76
2022/10/19 06:47:41;;;;;;;28.10;15.53;;;9.80;99.90;;;;;;5133585;27;20261;-78
2022/10/19 06:50:07;;;;;;;25.70;15.30;;;9.80;99.90;;;;;;5132932;27;20166;-76
2022/10/19 06:52:34;;;;;;;25.57;14.80;;;9.80;99.90;;;;;;5133499;27;20186;-76
2022/10/19 06:55:00;;;;;;;22.63;14.33;;;9.90;99.90;;;;;;5134125;27;20190;-77
2022/10/19 06:57:25;;;;;;;23.10;13.37;;;10.20;99.90;;;;;;5133282;27;20186;-76
2022/10/19 06:59:51;;;;;;;22.20;11.73;;;10.50;99.90;;;;;;5133400;27;20200;-78
2022/10/19 07:02:17;;;;;;;23.70;11.40;;;11.00;99.90;;;;;;5133192;27;20171;-75
2022/10/19 07:04:42;;;;;;;17.13;9.83;;;11.40;99.90;;;;;;5133739;27;20596;-77
2022/10/19 07:07:08;;;;;;;15.90;9.87;;;11.90;99.90;;;;;;5133288;27;20637;-76
2022/10/19 07:09:34;;;;;;;16.80;9.43;;;12.10;99.90;;;;;;5133235;27;20186;-78
2022/10/19 07:11:59;;;;;;;12.67;8.70;;;12.10;99.90;;;;;;5125961;27;20261;-78
2022/10/19 07:14:27;;;;;;;13.37;8.47;;;12.70;99.90;;;;;;5123352;27;20193;-78
2022/10/19 07:16:53;;;;;;;20.87;8.90;;;12.70;99.90;;;;;;5121913;27;20310;-78
2022/10/19 07:19:20;;;;;;;22.63;8.77;;;13.10;99.90;;;;;;5125739;27;20176;-77
2022/10/19 07:21:48;;;;;;;16.63;7.63;;;13.60;99.90;;;;;;5129568;27;20211;-78
2022/10/19 07:24:14;;;;;;;14.90;8.20;;;14.00;99.90;;;;;;5122774;27;20171;-78
2022/10/19 07:26:40;;;;;;;16.37;8.23;;;14.30;99.90;;;;;;5132758;27;20173;-78
2022/10/19 07:29:05;;;;;;;12.23;7.67;;;14.50;99.90;;;;;;5132881;27;20194;-81
2022/10/19 07:31:31;;;;;;;11.77;7.80;;;15.30;99.90;;;;;;5110909;28;20215;-79
2022/10/19 07:33:59;;;;;;;16.13;7.80;;;15.70;99.90;;;;;;5130754;27;20171;-79
2022/10/19 07:36:26;;;;;;;17.63;7.20;;;16.10;99.90;;;;;;5132504;27;20167;-79
2022/10/19 07:38:52;;;;;;;14.60;7.30;;;15.70;99.90;;;;;;5128327;27;20309;-81
2022/10/19 07:41:20;;;;;;;12.37;7.17;;;16.10;99.90;;;;;;5131763;27;20179;-81
2022/10/19 07:43:47;;;;;;;13.30;7.30;;;16.70;99.90;;;;;;5133498;27;20174;-80
2022/10/19 07:46:16;;;;;;;17.58;7.32;;;17.00;99.90;;;;;;5134482;27;20194;-80
2022/10/19 07:48:43;;;;;;;11.57;7.05;;;17.40;99.90;;;;;;5132276;27;20630;-78
2022/10/19 07:51:10;;;;;;;14.68;7.13;;;16.90;99.90;;;;;;5132581;27;20173;-79
2022/10/19 07:53:37;;;;;;;18.25;7.88;;;17.60;99.90;;;;;;5132448;27;20276;-79
2022/10/19 07:56:22;;;;;;;16.67;7.93;;;17.60;99.90;;;;;;5131784;27;20167;-79
2022/10/19 07:58:49;;;;;;;13.40;7.35;;;17.10;99.90;;;;;;5123693;27;20206;-76
2022/10/19 08:01:17;;;;;;;11.98;7.53;;;17.40;99.90;;;;;;5125869;27;20586;-77
2022/10/19 08:03:44;;;;;;;10.43;7.30;;;17.20;99.90;;;;;;5132713;27;20534;-78
2022/10/19 08:06:12;;;;;;;14.20;7.70;;;17.70;99.90;;;;;;5132259;27;20210;-78
2022/10/19 08:08:38;;;;;;;14.38;7.55;;;17.70;99.90;;;;;;5136499;27;20174;-82
2022/10/19 08:11:11;;;;;;;13.27;7.55;;;17.30;99.90;;;;;;5114876;27;20653;-79
2022/10/19 08:13:38;;;;;;;11.82;8.07;;;17.40;99.90;;;;;;5132691;27;20220;-80
2022/10/19 08:16:04;;;;;;;11.65;7.80;;;18.00;99.90;;;;;;5132640;27;20227;-80
2022/10/19 08:18:30;;;;;;;16.33;7.57;;;17.90;99.90;;;;;;5133829;27;20217;-82
2022/10/19 08:20:56;;;;;;;15.73;7.53;;;18.10;99.90;;;;;;5134960;27;20648;-79
2022/10/19 08:23:22;;;;;;;14.75;7.50;;;18.20;99.90;;;;;;5115711;28;20177;-80
2022/10/19 08:25:48;;;;;;;12.15;7.90;;;17.10;99.90;;;;;;5134914;28;20216;-83
2022/10/19 08:28:14;;;;;;;13.02;8.07;;;16.50;99.90;;;;;;5112923;28;20194;-82
2022/10/19 08:30:39;;;;;;;13.85;7.75;;;16.30;99.90;;;;;;5114996;28;20204;-80
2022/10/19 08:33:07;;;;;;;17.10;8.40;;;16.10;99.90;;;;;;5135893;28;20226;-80
2022/10/19 08:35:33;;;;;;;14.63;8.85;;;16.30;99.90;;;;;;5114898;28;20195;-77
2022/10/19 08:37:58;;;;;;;17.08;8.65;;;16.80;99.90;;;;;;5131336;28;20230;-82
2022/10/19 08:40:28;;;;;;;18.73;9.13;;;17.30;99.90;;;;;;5136855;28;20505;-82
2022/10/19 08:43:11;;;;;;;12.70;8.85;;;16.60;99.90;;;;;;5132612;28;20291;-80
2022/10/19 08:45:43;;;;;;;12.20;7.95;;;16.30;99.90;;;;;;5134145;28;20269;-82
2022/10/19 08:48:21;;;;;;;14.82;7.97;;;16.40;99.90;;;;;;5117505;28;20178;-81
2022/10/19 08:50:48;;;;;;;10.10;8.50;;;16.90;99.90;;;;;;5133719;28;20185;-86
2022/10/19 08:53:32;;;;;;;17.30;9.10;;;17.20;99.90;;;;;;5113757;28;20204;-81
2022/10/19 08:56:04;;;;;;;10.88;8.15;;;16.70;99.90;;;;;;5113220;28;20167;-88
2022/10/19 08:58:52;;;;;;;12.37;8.07;;;16.50;99.90;;;;;;5118544;28;20198;-82
2022/10/19 09:01:32;;;;;;;15.47;8.17;;;16.80;99.90;;;;;;5136155;28;20166;-83
2022/10/19 09:04:20;;;;;;;13.43;9.05;;;16.40;99.90;;;;;;5137497;28;20174;-82
2022/10/19 09:07:19;;;;;;;10.35;7.90;;;17.40;99.90;;;;;;5112097;28;20171;-80
2022/10/19 09:10:15;;;;;;;14.50;8.32;;;17.80;99.90;;;;;;5121951;28;20239;-83
2022/10/19 09:12:54;;;;;;;13.23;8.25;;;17.80;99.90;;;;;;5110036;28;20571;-79
2022/10/19 09:15:26;;;;;;;16.67;8.65;;;18.50;99.90;;;;;;5133005;28;20644;-81
2022/10/19 09:17:51;;;;;;;13.60;7.75;;;18.70;99.90;;;;;;5118642;28;20213;-80
2022/10/19 09:20:19;;;;;;;11.93;8.85;;;17.80;99.90;;;;;;5115738;28;20167;-82
2022/10/19 09:22:46;;;;;;;11.63;8.30;;;18.00;99.90;;;;;;5130860;28;20170;-84
2022/10/19 09:25:12;;;;;;;12.48;8.25;;;18.40;99.90;;;;;;5123484;28;20175;-83
2022/10/19 09:27:40;;;;;;;12.65;8.02;;;18.10;99.90;;;;;;5114669;28;20348;-83
2022/10/19 09:30:21;;;;;;;11.05;7.57;;;18.40;99.90;;;;;;5126081;27;20188;-84
2022/10/19 09:32:58;;;;;;;14.48;8.02;;;18.20;99.90;;;;;;5139930;27;20547;-80
2022/10/19 09:35:33;;;;;;;12.23;7.80;;;18.40;99.90;;;;;;5140054;27;20202;-85
2022/10/19 09:37:59;;;;;;;16.10;7.35;;;18.80;99.90;;;;;;5147612;27;20253;-88
2022/10/19 09:40:28;;;;;;;13.82;8.65;;;17.60;99.90;;;;;;5131613;27;20170;-84
2022/10/19 09:42:58;;;;;;;12.35;8.18;;;18.20;99.90;;;;;;5118696;28;20167;-89
2022/10/19 09:45:46;;;;;;;14.15;8.35;;;17.10;99.90;;;;;;5125898;27;20222;-85
2022/10/19 09:48:22;;;;;;;17.35;9.05;;;17.10;99.90;;;;;;5139773;27;20257;-88
2022/10/19 09:50:54;;;;;;;12.32;7.45;;;17.90;99.90;;;;;;5144034;27;20171;-87
2022/10/19 09:53:20;;;;;;;14.85;8.60;;;18.50;99.90;;;;;;5099827;28;20623;-85
2022/10/19 09:56:05;;;;;;;13.57;8.05;;;18.40;99.90;;;;;;5117893;28;20174;-81
2022/10/19 09:58:31;;;;;;;18.90;8.60;;;18.70;99.90;;;;;;5115752;27;20611;-82
2022/10/19 10:00:56;;;;;;;13.63;8.13;;;18.40;99.90;;;;;;5125730;27;20183;-82
2022/10/19 10:03:24;;;;;;;12.55;8.00;;;18.60;99.90;;;;;;5115099;27;20175;-86
2022/10/19 10:05:50;;;;;;;12.00;7.82;;;18.60;99.90;;;;;;5144965;27;20212;-84
2022/10/19 10:08:22;;;;;;;11.77;7.78;;;18.30;99.90;;;;;;5117229;27;20173;-83
2022/10/19 10:11:05;;;;;;;13.13;8.50;;;18.20;99.90;;;;;;5138248;27;20171;-83
2022/10/19 10:13:39;;;;;;;14.18;8.98;;;17.70;99.90;;;;;;5100119;27;20163;-81
2022/10/19 10:16:08;;;;;;;15.60;8.68;;;17.70;99.90;;;;;;5135916;27;20713;-83
2022/10/19 10:18:47;;;;;;;14.18;7.95;;;18.10;99.90;;;;;;5135890;27;20235;-80
2022/10/19 10:21:21;;;;;;;14.60;8.07;;;18.60;99.90;;;;;;5138559;27;20629;-83
2022/10/19 10:24:01;;;;;;;17.17;8.90;;;19.00;99.90;;;;;;5118360;27;20262;-84
2022/10/19 10:26:27;;;;;;;15.82;8.32;;;18.50;99.90;;;;;;5132830;27;20640;-81
2022/10/19 10:28:53;;;;;;;14.38;8.00;;;18.70;99.90;;;;;;5137567;27;20285;-82
2022/10/19 10:31:25;;;;;;;12.75;7.68;;;18.60;99.90;;;;;;5134421;27;20170;-80
2022/10/19 10:34:00;;;;;;;16.55;8.52;;;18.50;99.90;;;;;;5116239;27;20198;-79
2022/10/19 10:36:28;;;;;;;13.60;8.10;;;18.40;99.90;;;;;;5135878;27;20313;-83
2022/10/19 10:39:04;;;;;;;10.18;7.20;;;18.60;99.90;;;;;;5134488;27;20206;-83
2022/10/19 10:41:36;;;;;;;11.38;8.02;;;18.00;99.90;;;;;;5133735;27;20166;-83
2022/10/19 10:44:07;;;;;;;17.33;8.52;;;17.80;99.90;;;;;;5139806;27;20234;-82
2022/10/19 10:46:44;;;;;;;17.38;9.25;;;17.70;99.90;;;;;;5138804;27;20174;-82
2022/10/19 10:49:22;;;;;;;15.35;8.55;;;17.80;99.90;;;;;;5134443;27;20223;-80
2022/10/19 10:51:53;;;;;;;14.43;8.85;;;18.00;99.90;;;;;;5134513;27;20163;-81
2022/10/19 10:54:24;;;;;;;9.52;7.30;;;18.20;99.90;;;;;;5135163;27;20174;-82
2022/10/19 10:57:03;;;;;;;16.33;7.70;;;18.20;99.90;;;;;;5136550;27;20162;-82
2022/10/19 10:59:35;;;;;;;15.30;8.02;;;18.10;99.90;;;;;;5115115;27;20313;-83
2022/10/19 11:02:02;;;;;;;14.25;8.30;;;17.40;99.90;;;;;;5124417;27;20173;-84
2022/10/19 11:04:34;;;;;;;18.67;9.00;;;17.40;99.90;;;;;;5149908;27;20170;-82
2022/10/19 11:07:15;;;;;;;16.45;8.65;;;17.60;99.90;;;;;;5146980;27;20203;-83
2022/10/19 11:09:45;;;;;;;15.48;8.93;;;17.40;99.90;;;;;;5146546;27;20188;-82
2022/10/19 11:12:16;;;;;;;12.90;9.18;;;17.70;99.90;;;;;;5144532;27;20182;-84
2022/10/19 11:14:49;;;;;;;14.55;8.18;;;17.40;99.90;;;;;;5144502;27;20270;-82
2022/10/19 11:17:24;;;;;;;18.85;8.90;;;17.40;99.90;;;;;;5141965;27;20189;-82
2022/10/19 11:19:50;;;;;;;12.80;8.98;;;17.50;99.90;;;;;;5138707;27;20181;-82
2022/10/19 11:22:25;;;;;;;14.05;9.10;;;17.50;99.90;;;;;;5136132;27;20575;-82
2022/10/19 11:25:09;;;;;;;15.48;9.32;;;17.40;99.90;;;;;;5130487;27;20182;-79
2022/10/19 11:28:12;;;;;;;17.55;10.82;;;17.50;99.90;;;;;;5130082;27;20300;-79
2022/10/19 11:31:06;;;;;;;16.50;8.73;;;17.40;99.90;;;;;;5124880;27;20190;-79
2022/10/19 11:33:59;;;;;;;13.70;8.88;;;17.80;99.90;;;;;;5096332;28;20191;-80
2022/10/19 11:36:52;;;;;;;15.85;9.27;;;17.70;99.90;;;;;;5092448;28;20190;-80
2022/10/19 11:39:37;;;;;;;16.33;9.20;;;17.80;99.90;;;;;;5092690;28;20773;-83
2022/10/19 11:42:08;;;;;;;18.92;9.25;;;17.60;99.90;;;;;;5094903;28;20164;-81
2022/10/19 11:44:50;;;;;;;13.23;8.45;;;17.60;99.90;;;;;;5093633;28;20175;-77
2022/10/19 11:47:50;;;;;;;14.90;8.57;;;17.40;99.90;;;;;;5091436;28;20175;-81
2022/10/19 11:50:32;;;;;;;19.30;8.50;;;17.30;99.90;;;;;;5021581;28;20210;-79
2022/10/19 11:53:16;;;;;;;15.35;6.57;;;17.30;99.90;;;;;;5026197;28;20181;-82
2022/10/19 11:56:06;;;;;;;17.70;9.68;;;17.20;99.90;;;;;;5028533;28;20622;-79
2022/10/19 11:58:37;;;;;;;15.40;8.73;;;16.90;99.90;;;;;;5024863;28;20694;-81
2022/10/19 12:01:19;;;;;;;21.23;9.97;;;17.10;99.90;;;;;;5022927;28;20197;-78
2022/10/19 12:03:57;;;;;;;15.10;8.85;;;17.10;99.90;;;;;;5029311;28;20271;-80
2022/10/19 12:06:38;;;;;;;15.23;9.23;;;17.20;99.90;;;;;;5025995;28;20185;-80
2022/10/19 12:09:27;;;;;;;14.88;9.35;;;17.20;99.90;;;;;;5022030;28;20181;-79
2022/10/19 12:11:55;;;;;;;18.87;10.07;;;17.20;99.90;;;;;;5026008;28;20278;-78
2022/10/19 12:14:24;;;;;;;15.90;8.73;;;17.40;99.90;;;;;;5027992;28;20228;-78
2022/10/19 12:16:55;;;;;;;14.77;9.23;;;17.40;99.90;;;;;;5028394;28;20169;-79
2022/10/19 12:19:28;;;;;;;13.40;10.33;;;17.60;99.90;;;;;;5029281;28;20213;-79
2022/10/19 12:22:00;;;;;;;20.00;9.95;;;17.70;99.90;;;;;;5028329;28;20170;-79
2022/10/19 12:24:28;;;;;;;17.58;10.20;;;17.70;99.90;;;;;;5028703;28;20681;-80
2022/10/19 12:26:54;;;;;;;16.98;10.40;;;17.80;99.90;;;;;;5052941;28;20261;-79
2022/10/19 12:29:26;;;;;;;15.32;10.13;;;17.90;99.90;;;;;;5091493;28;20172;-79
2022/10/19 12:31:53;;;;;;;13.15;8.98;;;17.90;99.90;;;;;;5103662;28;20217;-79
2022/10/19 12:34:45;;;;;;;15.52;9.90;;;17.80;99.90;;;;;;5130295;28;20166;-77
2022/10/19 12:37:48;;;;;;;18.33;10.05;;;18.00;99.90;;;;;;5132371;28;20258;-80
2022/10/19 12:40:19;;;;;;;15.02;10.05;;;18.00;99.90;;;;;;5123452;28;20244;-84
2022/10/19 12:43:00;;;;;;;15.60;10.13;;;18.10;99.90;;;;;;5113251;28;20257;-80
2022/10/19 12:45:48;;;;;;;13.07;8.95;;;18.40;99.90;;;;;;5126247;28;20249;-81
2022/10/19 12:48:19;;;;;;;13.95;9.65;;;18.30;99.90;;;;;;5123482;28;20201;-76
2022/10/19 12:50:58;;;;;;;11.55;9.00;;;18.40;99.90;;;;;;5131717;28;20158;-82
2022/10/19 12:53:29;;;;;;;17.40;10.13;;;18.40;99.90;;;;;;5126145;28;20158;-80